sensor_id;sensor_type;location;lat;lon;timestamp;pressure;altitude;pressure_sealevel;temperature;humidity
21547;BME280;41275;51.912;4.388;2023-04-04T00:00:50;103003.91;;;11.83;33.05
21547;BME280;41275;51.912;4.388;2023-04-04T00:06:12;103011.34;;;11.72;33.16
21547;BME280;41275;51.912;4.388;2023-04-04T00:11:33;103005.44;;;11.62;33.48
21547;BME280;41275;51.912;4.388;2023-04-04T00:16:54;103006.53;;;11.53;33.48
21547;BME280;41275;51.912;4.388;2023-04-04T00:22:15;103012.38;;;11.48;34.00
21547;BME280;41275;51.912;4.388;2023-04-04T00:27:37;103006.47;;;11.38;34.14
21547;BME280;41275;51.912;4.388;2023-04-04T00:32:59;103000.25;;;11.31;34.61
21547;BME280;41275;51.912;4.388;2023-04-04T00:38:21;102996.19;;;11.20;34.82
21547;BME280;41275;51.912;4.388;2023-04-04T00:43:43;103002.53;;;11.11;35.11
21547;BME280;41275;51.912;4.388;2023-04-04T00:49:04;102987.38;;;11.05;35.61
21547;BME280;41275;51.912;4.388;2023-04-04T00:54:26;102996.00;;;10.99;35.18
21547;BME280;41275;51.912;4.388;2023-04-04T00:59:47;102999.19;;;10.94;35.25
21547;BME280;41275;51.912;4.388;2023-04-04T01:05:09;102990.94;;;10.89;35.70
21547;BME280;41275;51.912;4.388;2023-04-04T01:10:32;102994.13;;;10.85;35.81
21547;BME280;41275;51.912;4.388;2023-04-04T01:15:54;102988.84;;;10.76;35.51
21547;BME280;41275;51.912;4.388;2023-04-04T01:21:17;102988.41;;;10.73;36.31
21547;BME280;41275;51.912;4.388;2023-04-04T01:26:41;102977.38;;;10.61;36.67
21547;BME280;41275;51.912;4.388;2023-04-04T01:32:18;102977.75;;;10.50;36.77
21547;BME280;41275;51.912;4.388;2023-04-04T01:37:51;102986.38;;;10.44;37.26
21547;BME280;41275;51.912;4.388;2023-04-04T01:43:16;102972.38;;;10.35;37.72
21547;BME280;41275;51.912;4.388;2023-04-04T01:48:37;102980.00;;;10.30;37.79
21547;BME280;41275;51.912;4.388;2023-04-04T01:53:58;102978.81;;;10.24;38.18
21547;BME280;41275;51.912;4.388;2023-04-04T01:59:19;102979.50;;;10.18;38.65
21547;BME280;41275;51.912;4.388;2023-04-04T02:04:41;102973.25;;;10.11;39.02
21547;BME280;41275;51.912;4.388;2023-04-04T02:10:03;102980.84;;;10.06;39.05
21547;BME280;41275;51.912;4.388;2023-04-04T02:15:24;102975.59;;;9.98;39.08
21547;BME280;41275;51.912;4.388;2023-04-04T02:20:47;102975.13;;;9.94;39.12
21547;BME280;41275;51.912;4.388;2023-04-04T02:26:14;102978.94;;;9.92;39.46
21547;BME280;41275;51.912;4.388;2023-04-04T02:31:36;102985.38;;;9.89;39.44
21547;BME280;41275;51.912;4.388;2023-04-04T02:36:57;102997.78;;;9.89;38.67
21547;BME280;41275;51.912;4.388;2023-04-04T02:42:18;102980.91;;;9.81;38.66
21547;BME280;41275;51.912;4.388;2023-04-04T02:47:40;102989.03;;;9.80;38.99
21547;BME280;41275;51.912;4.388;2023-04-04T02:53:02;102960.47;;;9.75;39.09
21547;BME280;41275;51.912;4.388;2023-04-04T02:58:24;102958.97;;;9.73;38.74
21547;BME280;41275;51.912;4.388;2023-04-04T03:03:45;102942.78;;;9.68;38.90
21547;BME280;41275;51.912;4.388;2023-04-04T03:09:07;102946.59;;;9.65;39.27
21547;BME280;41275;51.912;4.388;2023-04-04T03:14:28;102946.09;;;9.62;38.85
21547;BME280;41275;51.912;4.388;2023-04-04T03:19:49;102953.19;;;9.61;38.83
21547;BME280;41275;51.912;4.388;2023-04-04T03:25:11;102955.53;;;9.56;39.48
21547;BME280;41275;51.912;4.388;2023-04-04T03:30:32;102968.06;;;9.54;38.74
21547;BME280;41275;51.912;4.388;2023-04-04T03:35:53;102966.09;;;9.48;39.04
21547;BME280;41275;51.912;4.388;2023-04-04T03:41:14;102975.00;;;9.47;38.96
21547;BME280;41275;51.912;4.388;2023-04-04T03:46:36;102971.91;;;9.43;39.10
21547;BME280;41275;51.912;4.388;2023-04-04T03:51:57;102963.81;;;9.37;39.63
21547;BME280;41275;51.912;4.388;2023-04-04T03:57:18;102963.63;;;9.30;39.74
21547;BME280;41275;51.912;4.388;2023-04-04T04:02:39;102965.78;;;9.26;40.01
21547;BME280;41275;51.912;4.388;2023-04-04T04:08:01;102966.44;;;9.20;40.30
21547;BME280;41275;51.912;4.388;2023-04-04T04:13:22;102966.94;;;9.16;40.32
21547;BME280;41275;51.912;4.388;2023-04-04T04:18:43;102963.63;;;9.14;40.24
21547;BME280;41275;51.912;4.388;2023-04-04T04:24:05;102966.75;;;9.09;40.39
21547;BME280;41275;51.912;4.388;2023-04-04T04:29:26;102967.59;;;9.09;40.81
21547;BME280;41275;51.912;4.388;2023-04-04T04:34:47;102969.91;;;9.04;40.89
21547;BME280;41275;51.912;4.388;2023-04-04T04:40:09;102963.44;;;8.99;40.61
21547;BME280;41275;51.912;4.388;2023-04-04T04:45:30;102978.63;;;8.97;40.75
21547;BME280;41275;51.912;4.388;2023-04-04T04:50:51;102979.94;;;8.93;40.68
21547;BME280;41275;51.912;4.388;2023-04-04T04:56:13;102969.84;;;8.88;40.77
21547;BME280;41275;51.912;4.388;2023-04-04T05:01:34;102973.50;;;8.87;41.22
21547;BME280;41275;51.912;4.388;2023-04-04T05:06:55;102976.13;;;8.87;41.26
21547;BME280;41275;51.912;4.388;2023-04-04T05:12:16;102975.47;;;8.85;41.64
21547;BME280;41275;51.912;4.388;2023-04-04T05:17:38;102979.44;;;8.89;41.28
21547;BME280;41275;51.912;4.388;2023-04-04T05:23:00;102987.19;;;8.91;41.81
21547;BME280;41275;51.912;4.388;2023-04-04T05:28:21;102986.38;;;8.90;41.33
21547;BME280;41275;51.912;4.388;2023-04-04T05:33:43;102987.88;;;8.93;41.30
21547;BME280;41275;51.912;4.388;2023-04-04T05:39:05;102991.47;;;8.92;41.76
21547;BME280;41275;51.912;4.388;2023-04-04T05:44:26;102996.94;;;8.98;41.96
21547;BME280;41275;51.912;4.388;2023-04-04T05:49:47;102995.63;;;9.02;41.45
21547;BME280;41275;51.912;4.388;2023-04-04T05:55:08;103000.59;;;9.14;41.19
21547;BME280;41275;51.912;4.388;2023-04-04T06:00:30;102996.31;;;9.21;41.36
21547;BME280;41275;51.912;4.388;2023-04-04T06:05:51;103002.75;;;9.34;41.92
21547;BME280;41275;51.912;4.388;2023-04-04T06:11:12;103006.72;;;9.47;41.08
21547;BME280;41275;51.912;4.388;2023-04-04T06:16:34;103001.78;;;9.60;41.13
21547;BME280;41275;51.912;4.388;2023-04-04T06:21:56;102992.84;;;9.69;41.04
21547;BME280;41275;51.912;4.388;2023-04-04T06:27:17;102995.44;;;9.94;39.98
21547;BME280;41275;51.912;4.388;2023-04-04T06:32:38;102995.25;;;10.12;40.09
21547;BME280;41275;51.912;4.388;2023-04-04T06:37:59;102994.38;;;10.27;39.23
21547;BME280;41275;51.912;4.388;2023-04-04T06:43:22;103002.75;;;10.47;38.93
21547;BME280;41275;51.912;4.388;2023-04-04T06:48:43;102995.38;;;10.66;38.41
21547;BME280;41275;51.912;4.388;2023-04-04T06:54:04;102999.38;;;10.93;37.68
21547;BME280;41275;51.912;4.388;2023-04-04T06:59:26;102991.47;;;11.07;37.42
21547;BME280;41275;51.912;4.388;2023-04-04T07:04:47;102991.19;;;11.25;36.82
21547;BME280;41275;51.912;4.388;2023-04-04T07:10:08;103002.59;;;11.49;36.37
21547;BME280;41275;51.912;4.388;2023-04-04T07:15:30;103002.09;;;11.68;36.12
21547;BME280;41275;51.912;4.388;2023-04-04T07:20:51;103007.44;;;11.98;35.76
21547;BME280;41275;51.912;4.388;2023-04-04T07:26:12;103003.78;;;12.43;34.61
21547;BME280;41275;51.912;4.388;2023-04-04T07:31:33;103010.00;;;12.50;34.09
21547;BME280;41275;51.912;4.388;2023-04-04T07:36:55;103005.22;;;12.61;32.74
21547;BME280;41275;51.912;4.388;2023-04-04T07:42:16;102998.06;;;12.61;32.61
21547;BME280;41275;51.912;4.388;2023-04-04T07:47:43;103001.13;;;12.80;31.58
21547;BME280;41275;51.912;4.388;2023-04-04T07:53:05;102999.38;;;12.87;30.86
21547;BME280;41275;51.912;4.388;2023-04-04T07:58:26;102991.03;;;12.90;30.43
21547;BME280;41275;51.912;4.388;2023-04-04T08:03:47;103000.59;;;13.06;30.08
21547;BME280;41275;51.912;4.388;2023-04-04T08:09:10;102990.91;;;13.19;29.49
21547;BME280;41275;51.912;4.388;2023-04-04T08:14:31;102994.19;;;13.43;29.34
21547;BME280;41275;51.912;4.388;2023-04-04T08:19:53;102987.75;;;13.52;28.57
21547;BME280;41275;51.912;4.388;2023-04-04T08:25:14;102989.53;;;13.73;28.27
21547;BME280;41275;51.912;4.388;2023-04-04T08:30:35;102990.03;;;13.90;27.76
21547;BME280;41275;51.912;4.388;2023-04-04T08:35:56;102992.38;;;13.99;27.45
21547;BME280;41275;51.912;4.388;2023-04-04T08:41:18;102989.63;;;14.28;27.46
21547;BME280;41275;51.912;4.388;2023-04-04T08:46:40;102984.66;;;14.18;27.21
21547;BME280;41275;51.912;4.388;2023-04-04T08:52:02;102992.50;;;14.33;27.53
21547;BME280;41275;51.912;4.388;2023-04-04T08:57:26;102991.59;;;14.54;27.10
21547;BME280;41275;51.912;4.388;2023-04-04T09:03:08;102975.84;;;14.59;26.96
21547;BME280;41275;51.912;4.388;2023-04-04T09:08:31;102984.31;;;14.89;26.19
21547;BME280;41275;51.912;4.388;2023-04-04T09:13:53;102990.28;;;14.91;25.86
21547;BME280;41275;51.912;4.388;2023-04-04T09:19:16;102980.84;;;14.95;25.93
21547;BME280;41275;51.912;4.388;2023-04-04T09:24:38;102984.94;;;15.04;25.69
21547;BME280;41275;51.912;4.388;2023-04-04T09:30:01;102969.56;;;15.13;26.07
21547;BME280;41275;51.912;4.388;2023-04-04T09:35:22;102981.88;;;15.07;25.52
21547;BME280;41275;51.912;4.388;2023-04-04T09:40:44;102979.41;;;14.99;25.80
21547;BME280;41275;51.912;4.388;2023-04-04T09:46:05;102980.06;;;15.28;25.40
21547;BME280;41275;51.912;4.388;2023-04-04T09:51:34;102986.41;;;15.53;25.29
21547;BME280;41275;51.912;4.388;2023-04-04T09:57:02;102972.03;;;15.61;25.51
21547;BME280;41275;51.912;4.388;2023-04-04T10:02:23;102980.69;;;15.76;25.15
21547;BME280;41275;51.912;4.388;2023-04-04T10:07:44;102971.22;;;15.80;25.60
21547;BME280;41275;51.912;4.388;2023-04-04T10:13:10;102984.34;;;15.82;25.72
21547;BME280;41275;51.912;4.388;2023-04-04T10:18:33;102966.06;;;15.79;25.53
21547;BME280;41275;51.912;4.388;2023-04-04T10:23:54;102957.41;;;15.97;25.68
21547;BME280;41275;51.912;4.388;2023-04-04T10:29:18;102963.13;;;16.07;25.34
21547;BME280;41275;51.912;4.388;2023-04-04T10:34:52;102952.81;;;16.17;24.95
21547;BME280;41275;51.912;4.388;2023-04-04T10:40:16;102957.16;;;16.11;24.57
21547;BME280;41275;51.912;4.388;2023-04-04T10:45:39;102948.84;;;16.26;25.22
21547;BME280;41275;51.912;4.388;2023-04-04T10:51:03;102948.03;;;16.32;25.65
21547;BME280;41275;51.912;4.388;2023-04-04T10:56:25;102925.75;;;16.45;24.90
21547;BME280;41275;51.912;4.388;2023-04-04T11:01:59;102929.81;;;16.54;24.94
21547;BME280;41275;51.912;4.388;2023-04-04T11:07:26;102923.97;;;16.71;24.94
21547;BME280;41275;51.912;4.388;2023-04-04T11:12:52;102922.38;;;16.95;25.01
21547;BME280;41275;51.912;4.388;2023-04-04T11:18:19;102916.31;;;17.06;24.14
21547;BME280;41275;51.912;4.388;2023-04-04T11:29:19;102898.53;;;17.18;24.13
21547;BME280;41275;51.912;4.388;2023-04-04T11:34:42;102897.81;;;17.29;24.20
21547;BME280;41275;51.912;4.388;2023-04-04T11:40:09;102901.97;;;17.43;23.58
21547;BME280;41275;51.912;4.388;2023-04-04T11:45:35;102903.16;;;17.48;24.11
21547;BME280;41275;51.912;4.388;2023-04-04T11:50:57;102890.66;;;17.60;23.72
21547;BME280;41275;51.912;4.388;2023-04-04T11:56:18;102884.97;;;17.75;23.61
21547;BME280;41275;51.912;4.388;2023-04-04T12:01:40;102882.44;;;17.80;23.26
21547;BME280;41275;51.912;4.388;2023-04-04T12:07:05;102868.84;;;17.81;22.99
21547;BME280;41275;51.912;4.388;2023-04-04T12:12:26;102868.66;;;17.95;23.09
21547;BME280;41275;51.912;4.388;2023-04-04T12:17:48;102870.16;;;17.90;22.50
21547;BME280;41275;51.912;4.388;2023-04-04T12:23:11;102863.41;;;18.18;22.46
21547;BME280;41275;51.912;4.388;2023-04-04T12:28:32;102848.31;;;19.76;21.46
21547;BME280;41275;51.912;4.388;2023-04-04T12:33:55;102847.59;;;21.44;20.50
21547;BME280;41275;51.912;4.388;2023-04-04T12:39:16;102845.13;;;22.41;19.39
21547;BME280;41275;51.912;4.388;2023-04-04T12:44:38;102842.72;;;22.82;18.84
21547;BME280;41275;51.912;4.388;2023-04-04T12:49:59;102836.81;;;24.15;17.50
21547;BME280;41275;51.912;4.388;2023-04-04T12:55:22;102830.09;;;24.48;17.50
21547;BME280;41275;51.912;4.388;2023-04-04T13:00:44;102818.56;;;25.23;17.18
21547;BME280;41275;51.912;4.388;2023-04-04T13:06:15;102811.22;;;25.83;16.45
21547;BME280;41275;51.912;4.388;2023-04-04T13:12:00;102815.88;;;26.12;15.68
21547;BME280;41275;51.912;4.388;2023-04-04T13:17:24;102798.16;;;25.85;15.85
21547;BME280;41275;51.912;4.388;2023-04-04T13:22:46;102792.38;;;25.97;15.76
21547;BME280;41275;51.912;4.388;2023-04-04T13:28:07;102787.50;;;26.62;15.25
21547;BME280;41275;51.912;4.388;2023-04-04T13:33:32;102776.72;;;26.52;15.63
21547;BME280;41275;51.912;4.388;2023-04-04T13:38:53;102782.31;;;27.14;15.31
21547;BME280;41275;51.912;4.388;2023-04-04T13:44:14;102773.03;;;26.91;15.65
21547;BME280;41275;51.912;4.388;2023-04-04T13:49:36;102761.31;;;27.95;14.84
21547;BME280;41275;51.912;4.388;2023-04-04T13:54:57;102757.66;;;28.32;14.82
21547;BME280;41275;51.912;4.388;2023-04-04T14:00:19;102750.06;;;28.62;14.32
21547;BME280;41275;51.912;4.388;2023-04-04T14:05:40;102737.66;;;28.97;14.01
21547;BME280;41275;51.912;4.388;2023-04-04T14:11:02;102727.91;;;28.91;13.83
21547;BME280;41275;51.912;4.388;2023-04-04T14:16:23;102722.97;;;29.43;14.16
21547;BME280;41275;51.912;4.388;2023-04-04T14:21:44;102709.72;;;29.73;13.29
21547;BME280;41275;51.912;4.388;2023-04-04T14:27:05;102716.13;;;28.82;13.90
21547;BME280;41275;51.912;4.388;2023-04-04T14:32:27;102712.88;;;27.59;14.85
21547;BME280;41275;51.912;4.388;2023-04-04T14:37:48;102714.97;;;26.39;15.59
21547;BME280;41275;51.912;4.388;2023-04-04T14:43:09;102713.84;;;25.82;15.56
21547;BME280;41275;51.912;4.388;2023-04-04T14:48:31;102697.09;;;25.75;15.78
21547;BME280;41275;51.912;4.388;2023-04-04T14:53:52;102687.78;;;25.86;15.79
21547;BME280;41275;51.912;4.388;2023-04-04T14:59:13;102684.50;;;25.05;16.19
21547;BME280;41275;51.912;4.388;2023-04-04T15:04:34;102677.09;;;24.66;16.67
21547;BME280;41275;51.912;4.388;2023-04-04T15:09:56;102673.91;;;24.44;16.74
21547;BME280;41275;51.912;4.388;2023-04-04T15:15:17;102669.75;;;24.77;16.83
21547;BME280;41275;51.912;4.388;2023-04-04T15:20:39;102665.88;;;24.93;16.33
21547;BME280;41275;51.912;4.388;2023-04-04T15:26:00;102673.13;;;24.43;16.78
21547;BME280;41275;51.912;4.388;2023-04-04T15:31:23;102664.19;;;23.20;17.46
21547;BME280;41275;51.912;4.388;2023-04-04T15:36:46;102652.94;;;22.18;18.11
21547;BME280;41275;51.912;4.388;2023-04-04T15:42:08;102651.94;;;21.65;18.46
21547;BME280;41275;51.912;4.388;2023-04-04T15:47:29;102639.97;;;21.24;18.88
21547;BME280;41275;51.912;4.388;2023-04-04T15:52:50;102644.66;;;21.33;18.93
21547;BME280;41275;51.912;4.388;2023-04-04T15:58:12;102642.47;;;21.30;19.07
21547;BME280;41275;51.912;4.388;2023-04-04T16:03:33;102632.59;;;20.87;19.14
21547;BME280;41275;51.912;4.388;2023-04-04T16:08:54;102623.00;;;20.52;19.16
21547;BME280;41275;51.912;4.388;2023-04-04T16:14:15;102618.84;;;20.45;19.21
21547;BME280;41275;51.912;4.388;2023-04-04T16:19:36;102619.00;;;20.38;19.76
21547;BME280;41275;51.912;4.388;2023-04-04T16:24:58;102614.91;;;20.14;19.72
21547;BME280;41275;51.912;4.388;2023-04-04T16:30:19;102608.69;;;19.74;19.93
21547;BME280;41275;51.912;4.388;2023-04-04T16:35:40;102604.09;;;19.58;20.16
21547;BME280;41275;51.912;4.388;2023-04-04T16:41:01;102606.09;;;19.34;20.60
21547;BME280;41275;51.912;4.388;2023-04-04T16:46:22;102595.03;;;19.02;21.41
21547;BME280;41275;51.912;4.388;2023-04-04T16:51:44;102594.63;;;18.81;23.90
21547;BME280;41275;51.912;4.388;2023-04-04T16:57:06;102598.03;;;18.65;24.65
21547;BME280;41275;51.912;4.388;2023-04-04T17:02:27;102589.94;;;18.36;26.01
21547;BME280;41275;51.912;4.388;2023-04-04T17:07:48;102586.34;;;18.19;26.40
21547;BME280;41275;51.912;4.388;2023-04-04T17:13:09;102595.91;;;18.03;26.85
21547;BME280;41275;51.912;4.388;2023-04-04T17:18:31;102593.91;;;17.87;27.09
21547;BME280;41275;51.912;4.388;2023-04-04T17:23:52;102589.81;;;17.73;27.23
21547;BME280;41275;51.912;4.388;2023-04-04T17:29:13;102588.28;;;17.53;27.88
21547;BME280;41275;51.912;4.388;2023-04-04T17:34:34;102585.91;;;17.33;28.33
21547;BME280;41275;51.912;4.388;2023-04-04T17:39:57;102585.22;;;17.38;28.64
21547;BME280;41275;51.912;4.388;2023-04-04T17:45:19;102592.94;;;17.70;27.98
21547;BME280;41275;51.912;4.388;2023-04-04T17:50:40;102586.03;;;17.08;29.10
21547;BME280;41275;51.912;4.388;2023-04-04T17:56:02;102590.38;;;16.73;29.75
21547;BME280;41275;51.912;4.388;2023-04-04T18:01:24;102598.91;;;16.44;30.48
21547;BME280;41275;51.912;4.388;2023-04-04T18:06:49;102599.41;;;16.16;31.07
21547;BME280;41275;51.912;4.388;2023-04-04T18:12:11;102605.97;;;15.95;31.15
21547;BME280;41275;51.912;4.388;2023-04-04T18:17:32;102603.09;;;15.72;31.99
21547;BME280;41275;51.912;4.388;2023-04-04T18:22:53;102608.16;;;15.49;32.21
21547;BME280;41275;51.912;4.388;2023-04-04T18:28:14;102600.84;;;15.31;32.45
21547;BME280;41275;51.912;4.388;2023-04-04T18:33:36;102606.47;;;15.16;33.20
21547;BME280;41275;51.912;4.388;2023-04-04T18:38:57;102614.38;;;14.97;33.69
21547;BME280;41275;51.912;4.388;2023-04-04T18:44:18;102612.78;;;14.83;34.02
21547;BME280;41275;51.912;4.388;2023-04-04T18:49:39;102608.13;;;14.65;34.40
21547;BME280;41275;51.912;4.388;2023-04-04T18:55:03;102621.25;;;14.54;34.79
21547;BME280;41275;51.912;4.388;2023-04-04T19:00:24;102613.50;;;14.39;34.92
21547;BME280;41275;51.912;4.388;2023-04-04T19:05:46;102627.63;;;14.26;35.23
21547;BME280;41275;51.912;4.388;2023-04-04T19:11:09;102621.72;;;14.17;35.47
21547;BME280;41275;51.912;4.388;2023-04-04T19:16:32;102629.31;;;14.07;35.91
21547;BME280;41275;51.912;4.388;2023-04-04T19:21:53;102614.56;;;13.98;36.40
21547;BME280;41275;51.912;4.388;2023-04-04T19:27:14;102616.81;;;13.88;36.63
21547;BME280;41275;51.912;4.388;2023-04-04T19:32:36;102615.78;;;13.82;37.02
21547;BME280;41275;51.912;4.388;2023-04-04T19:37:57;102618.63;;;13.74;37.42
21547;BME280;41275;51.912;4.388;2023-04-04T19:43:20;102617.81;;;13.67;37.81
21547;BME280;41275;51.912;4.388;2023-04-04T19:48:42;102611.25;;;13.63;38.19
21547;BME280;41275;51.912;4.388;2023-04-04T19:54:06;102612.91;;;13.57;38.35
21547;BME280;41275;51.912;4.388;2023-04-04T19:59:57;102607.38;;;13.52;38.76
21547;BME280;41275;51.912;4.388;2023-04-04T20:10:52;102618.56;;;13.34;39.00
21547;BME280;41275;51.912;4.388;2023-04-04T20:16:15;102606.50;;;13.32;39.42
21547;BME280;41275;51.912;4.388;2023-04-04T20:21:37;102612.16;;;13.22;39.68
21547;BME280;41275;51.912;4.388;2023-04-04T20:26:58;102611.53;;;13.20;39.78
21547;BME280;41275;51.912;4.388;2023-04-04T20:32:19;102603.78;;;13.18;39.59
21547;BME280;41275;51.912;4.388;2023-04-04T20:37:41;102608.47;;;13.16;40.07
21547;BME280;41275;51.912;4.388;2023-04-04T20:43:05;102611.53;;;13.13;39.90
21547;BME280;41275;51.912;4.388;2023-04-04T20:48:39;102603.56;;;13.13;39.97
21547;BME280;41275;51.912;4.388;2023-04-04T20:54:02;102596.38;;;13.07;39.79
21547;BME280;41275;51.912;4.388;2023-04-04T20:59:35;102602.06;;;13.04;40.02
21547;BME280;41275;51.912;4.388;2023-04-04T21:04:56;102586.13;;;13.04;39.48
21547;BME280;41275;51.912;4.388;2023-04-04T21:10:47;102576.75;;;13.01;39.15
21547;BME280;41275;51.912;4.388;2023-04-04T21:16:11;102577.72;;;13.00;39.08
21547;BME280;41275;51.912;4.388;2023-04-04T21:21:33;102575.50;;;12.97;38.05
21547;BME280;41275;51.912;4.388;2023-04-04T21:26:57;102574.06;;;12.95;38.14
21547;BME280;41275;51.912;4.388;2023-04-04T21:32:18;102570.16;;;12.91;37.97
21547;BME280;41275;51.912;4.388;2023-04-04T21:37:43;102571.56;;;12.87;37.65
21547;BME280;41275;51.912;4.388;2023-04-04T21:43:06;102576.25;;;12.85;37.66
21547;BME280;41275;51.912;4.388;2023-04-04T21:48:27;102577.88;;;12.79;37.60
21547;BME280;41275;51.912;4.388;2023-04-04T21:53:49;102568.44;;;12.76;37.63
21547;BME280;41275;51.912;4.388;2023-04-04T21:59:10;102575.00;;;12.74;37.41
21547;BME280;41275;51.912;4.388;2023-04-04T22:04:31;102576.59;;;12.68;37.68
21547;BME280;41275;51.912;4.388;2023-04-04T22:09:52;102577.63;;;12.67;37.84
21547;BME280;41275;51.912;4.388;2023-04-04T22:15:14;102577.41;;;12.62;38.08
21547;BME280;41275;51.912;4.388;2023-04-04T22:20:38;102577.34;;;12.56;38.39
21547;BME280;41275;51.912;4.388;2023-04-04T22:26:04;102580.41;;;12.52;38.30
21547;BME280;41275;51.912;4.388;2023-04-04T22:31:26;102572.00;;;12.49;38.31
21547;BME280;41275;51.912;4.388;2023-04-04T22:36:48;102556.06;;;12.42;38.58
21547;BME280;41275;51.912;4.388;2023-04-04T22:42:10;102552.97;;;12.39;38.69
21547;BME280;41275;51.912;4.388;2023-04-04T22:47:34;102560.94;;;12.39;39.00
21547;BME280;41275;51.912;4.388;2023-04-04T22:52:55;102557.47;;;12.38;38.89
21547;BME280;41275;51.912;4.388;2023-04-04T22:58:19;102548.25;;;12.34;39.13
21547;BME280;41275;51.912;4.388;2023-04-04T23:03:41;102543.72;;;12.28;39.41
21547;BME280;41275;51.912;4.388;2023-04-04T23:09:03;102544.91;;;12.25;39.71
21547;BME280;41275;51.912;4.388;2023-04-04T23:14:25;102542.22;;;12.19;39.78
21547;BME280;41275;51.912;4.388;2023-04-04T23:19:50;102537.31;;;12.16;40.03
21547;BME280;41275;51.912;4.388;2023-04-04T23:25:11;102531.78;;;12.11;40.19
21547;BME280;41275;51.912;4.388;2023-04-04T23:30:32;102523.75;;;12.04;40.21
21547;BME280;41275;51.912;4.388;2023-04-04T23:35:54;102523.97;;;12.02;40.31
21547;BME280;41275;51.912;4.388;2023-04-04T23:41:15;102519.84;;;12.00;40.82
21547;BME280;41275;51.912;4.388;2023-04-04T23:46:38;102516.56;;;11.98;40.94
21547;BME280;41275;51.912;4.388;2023-04-04T23:51:59;102515.53;;;11.92;40.88
21547;BME280;41275;51.912;4.388;2023-04-04T23:57:20;102515.91;;;11.89;41.21
